createdAt,value
2019-05-20T00:01:07.059Z,100.00
2019-05-20T00:03:35.850Z,100.00
2019-05-20T00:06:05.232Z,100.00
2019-05-20T00:08:34.040Z,100.00
2019-05-20T00:11:02.818Z,100.00
2019-05-20T00:13:31.560Z,100.00
2019-05-20T00:16:00.327Z,100.00
2019-05-20T00:18:29.103Z,100.00
2019-05-20T00:20:57.852Z,100.00
2019-05-20T00:23:26.644Z,100.00
2019-05-20T00:25:55.411Z,100.00
2019-05-20T00:28:24.215Z,100.00
2019-05-20T00:30:52.965Z,100.00
2019-05-20T00:33:21.765Z,100.00
2019-05-20T00:35:50.573Z,100.00
2019-05-20T00:38:19.321Z,100.00
2019-05-20T00:40:48.061Z,100.00
2019-05-20T00:43:16.825Z,100.00
2019-05-20T00:45:45.560Z,100.00
2019-05-20T00:48:14.337Z,100.00
2019-05-20T00:50:43.009Z,100.00
2019-05-20T00:53:11.825Z,100.00
2019-05-20T00:55:41.967Z,100.00
2019-05-20T00:58:10.804Z,100.00
2019-05-20T01:00:40.322Z,100.00
2019-05-20T01:03:09.140Z,100.00
2019-05-20T01:05:37.918Z,100.00
2019-05-20T01:08:06.790Z,100.00
2019-05-20T01:10:35.617Z,100.00
2019-05-20T01:13:05.150Z,100.00
2019-05-20T01:15:34.033Z,100.00
2019-05-20T01:18:02.904Z,100.00
2019-05-20T01:20:31.641Z,100.00
2019-05-20T01:23:00.401Z,100.00
2019-05-20T01:25:29.165Z,100.00
2019-05-20T01:27:57.975Z,100.00
2019-05-20T01:30:26.715Z,100.00
2019-05-20T01:32:55.470Z,100.00
2019-05-20T01:35:24.365Z,100.00
2019-05-20T01:37:53.106Z,100.00
2019-05-20T01:40:21.920Z,100.00
2019-05-20T01:42:50.803Z,100.00
2019-05-20T01:45:19.549Z,100.00
2019-05-20T01:47:48.299Z,100.00
2019-05-20T01:50:17.085Z,100.00
2019-05-20T01:52:46.058Z,100.00
2019-05-20T01:55:14.945Z,100.00
2019-05-20T01:57:43.687Z,100.00
2019-05-20T02:00:14.023Z,100.00
2019-05-20T02:02:43.091Z,100.00
2019-05-20T02:05:12.014Z,100.00
2019-05-20T02:07:40.774Z,100.00
2019-05-20T02:10:10.084Z,100.00
2019-05-20T02:12:38.829Z,100.00
2019-05-20T02:15:12.386Z,100.00
2019-05-20T02:17:41.342Z,100.00
2019-05-20T02:20:11.088Z,100.00
2019-05-20T02:22:39.844Z,100.00
2019-05-20T02:25:08.877Z,100.00
2019-05-20T02:27:37.622Z,100.00
2019-05-20T02:30:12.248Z,100.00
2019-05-20T02:32:41.142Z,100.00
2019-05-20T02:35:09.894Z,100.00
2019-05-20T02:37:38.589Z,100.00
2019-05-20T02:40:09.144Z,100.00
2019-05-20T02:42:37.844Z,100.00
2019-05-20T02:45:07.974Z,100.00
2019-05-20T02:47:36.762Z,100.00
2019-05-20T02:50:08.329Z,100.00
2019-05-20T02:52:37.124Z,100.00
2019-05-20T02:55:07.550Z,100.00
2019-05-20T02:57:36.351Z,100.00
2019-05-20T03:00:07.958Z,100.00
2019-05-20T03:02:36.845Z,100.00
2019-05-20T03:05:07.299Z,100.00
2019-05-20T03:07:36.133Z,100.00
2019-05-20T03:10:07.163Z,100.00
2019-05-20T03:12:36.013Z,100.00
2019-05-20T03:15:10.336Z,100.00
2019-05-20T03:17:39.094Z,100.00
2019-05-20T03:20:09.463Z,100.00
2019-05-20T03:22:38.268Z,100.00
2019-05-20T03:25:08.506Z,100.00
2019-05-20T03:27:37.396Z,100.00
2019-05-20T03:30:07.608Z,100.00
2019-05-20T03:32:36.531Z,100.00
2019-05-20T03:35:07.477Z,100.00
2019-05-20T03:37:36.271Z,100.00
2019-05-20T03:40:06.531Z,100.00
2019-05-20T03:42:35.432Z,100.00
2019-05-20T03:45:06.562Z,100.00
2019-05-20T03:47:35.350Z,100.00
2019-05-20T03:50:05.469Z,100.00
2019-05-20T03:52:34.238Z,100.00
2019-05-20T03:55:03.048Z,100.00
2019-05-20T03:57:31.842Z,100.00
2019-05-20T04:00:00.691Z,100.00
2019-05-20T04:02:29.434Z,100.00
2019-05-20T04:05:02.442Z,100.00
2019-05-20T04:07:28.765Z,100.00
2019-05-20T04:09:57.534Z,100.00
2019-05-20T04:12:26.446Z,100.00
2019-05-20T04:14:55.206Z,100.00
2019-05-20T04:17:23.993Z,100.00
2019-05-20T04:19:52.812Z,100.00
2019-05-20T04:22:21.601Z,100.00
2019-05-20T04:24:50.389Z,100.00
2019-05-20T04:27:19.135Z,100.00
2019-05-20T04:29:47.904Z,100.00
2019-05-20T04:32:16.661Z,100.00
2019-05-20T04:34:45.367Z,100.00
2019-05-20T04:37:14.281Z,100.00
2019-05-20T04:39:43.036Z,100.00
2019-05-20T04:42:11.783Z,100.00
2019-05-20T04:44:40.573Z,100.00
2019-05-20T04:47:09.385Z,100.00
2019-05-20T04:49:38.122Z,100.00
2019-05-20T04:52:06.919Z,100.00
2019-05-20T04:54:43.937Z,100.00
2019-05-20T04:57:13.178Z,100.00
2019-05-20T04:59:41.921Z,100.00
2019-05-20T05:02:10.681Z,100.00
2019-05-20T05:04:39.421Z,100.00
2019-05-20T05:07:08.558Z,100.00
2019-05-20T05:09:42.932Z,100.00
2019-05-20T05:12:11.993Z,100.00
2019-05-20T05:14:40.870Z,100.00
2019-05-20T05:17:09.615Z,100.00
2019-05-20T05:19:38.605Z,100.00
2019-05-20T05:22:07.496Z,100.00
2019-05-20T05:24:36.344Z,100.00
2019-05-20T05:27:05.500Z,100.00
2019-05-20T05:29:34.351Z,100.00
2019-05-20T05:32:03.105Z,100.00
2019-05-20T05:34:31.835Z,100.00
2019-05-20T05:37:00.594Z,100.00
2019-05-20T05:39:29.368Z,100.00
2019-05-20T05:41:58.120Z,100.00
2019-05-20T05:44:38.617Z,100.00
2019-05-20T05:47:07.457Z,100.00
2019-05-20T05:49:36.213Z,100.00
2019-05-20T05:52:05.211Z,100.00
2019-05-20T05:54:33.959Z,100.00
2019-05-20T05:57:02.829Z,100.00
2019-05-20T05:59:31.581Z,100.00
2019-05-20T06:02:00.330Z,100.00
2019-05-20T06:04:29.089Z,100.00
2019-05-20T06:06:57.868Z,100.00
2019-05-20T06:09:26.651Z,100.00
2019-05-20T06:11:55.394Z,100.00
2019-05-20T06:14:24.259Z,100.00
2019-05-20T06:16:53.108Z,100.00
2019-05-20T06:19:21.910Z,100.00
2019-05-20T06:21:50.706Z,99.88
2019-05-20T06:24:19.457Z,100.00
2019-05-20T06:26:48.219Z,99.19
2019-05-20T06:29:17.013Z,99.43
2019-05-20T06:31:45.753Z,99.56
2019-05-20T06:34:14.497Z,99.56
2019-05-20T06:36:45.007Z,99.55
2019-05-20T06:39:15.173Z,99.92
2019-05-20T06:41:43.938Z,99.38
2019-05-20T06:44:12.698Z,99.55
2019-05-20T06:46:41.441Z,99.05
2019-05-20T06:49:10.224Z,98.31
2019-05-20T06:51:38.970Z,98.29
2019-05-20T06:54:07.734Z,97.30
2019-05-20T06:56:37.528Z,97.58
2019-05-20T06:59:06.311Z,96.85
2019-05-20T07:01:35.074Z,96.32
2019-05-20T07:04:03.813Z,96.68
2019-05-20T07:06:45.374Z,96.68
2019-05-20T07:09:03.036Z,95.01
2019-05-20T07:11:31.907Z,97.35
2019-05-20T07:14:00.670Z,96.20
2019-05-20T07:16:29.490Z,98.11
2019-05-20T07:18:58.238Z,96.80
2019-05-20T07:21:26.983Z,96.38
2019-05-20T07:23:55.754Z,96.10
2019-05-20T07:26:24.634Z,96.22
2019-05-20T07:28:53.395Z,96.00
2019-05-20T07:31:22.129Z,96.99
2019-05-20T07:33:50.910Z,97.32
2019-05-20T07:36:19.674Z,97.17
2019-05-20T07:38:48.411Z,97.17
2019-05-20T07:41:17.194Z,97.17
2019-05-20T07:43:45.932Z,96.22
2019-05-20T07:46:16.637Z,96.34
2019-05-20T07:48:45.460Z,96.55
2019-05-20T07:51:14.919Z,95.77
2019-05-20T07:53:44.002Z,94.65
2019-05-20T07:56:21.945Z,94.63
2019-05-20T07:58:53.609Z,95.36
2019-05-20T08:01:23.037Z,95.70
2019-05-20T08:03:51.800Z,95.86
2019-05-20T08:06:20.552Z,95.43
2019-05-20T08:08:49.344Z,95.86
2019-05-20T08:11:18.020Z,94.98
2019-05-20T08:13:46.765Z,94.30
2019-05-20T08:16:15.529Z,94.04
2019-05-20T08:18:44.266Z,94.52
2019-05-20T08:21:13.153Z,94.94
2019-05-20T08:23:41.927Z,94.65
2019-05-20T08:26:10.705Z,94.27
2019-05-20T08:28:39.510Z,95.53
2019-05-20T08:31:08.329Z,96.37
2019-05-20T08:33:37.175Z,95.40
2019-05-20T08:36:05.961Z,95.79
2019-05-20T08:38:34.726Z,95.04
2019-05-20T08:41:03.658Z,93.89
2019-05-20T08:43:32.423Z,94.67
2019-05-20T08:46:01.194Z,94.67
2019-05-20T08:48:30.034Z,94.37
2019-05-20T08:50:58.786Z,94.44
2019-05-20T08:53:27.741Z,94.32
2019-05-20T08:55:56.581Z,93.96
2019-05-20T08:58:25.458Z,93.69
2019-05-20T09:00:54.324Z,93.76
2019-05-20T09:03:23.077Z,93.96
2019-05-20T09:05:52.537Z,94.35
2019-05-20T09:08:21.284Z,93.29
2019-05-20T09:10:50.060Z,92.85
2019-05-20T09:13:18.904Z,93.83
2019-05-20T09:15:47.639Z,92.67
2019-05-20T09:18:16.420Z,93.02
2019-05-20T09:20:45.166Z,93.32
2019-05-20T09:23:13.962Z,94.07
2019-05-20T09:25:42.688Z,93.96
2019-05-20T09:28:11.424Z,93.83
2019-05-20T09:30:40.200Z,93.83
2019-05-20T09:33:08.936Z,93.47
2019-05-20T09:35:37.695Z,93.06
2019-05-20T09:38:19.461Z,93.29
2019-05-20T09:40:45.861Z,93.25
2019-05-20T09:43:14.633Z,93.31
2019-05-20T09:45:43.285Z,93.76
2019-05-20T09:48:14.295Z,92.66
2019-05-20T09:50:43.208Z,92.63
2019-05-20T09:53:13.160Z,91.42
2019-05-20T09:55:41.904Z,91.70
2019-05-20T09:58:10.849Z,92.69
2019-05-20T10:00:39.516Z,92.43
2019-05-20T10:03:08.271Z,92.73
2019-05-20T10:05:37.786Z,92.33
2019-05-20T10:08:07.107Z,92.00
2019-05-20T10:10:35.972Z,91.58
2019-05-20T10:13:05.564Z,91.82
2019-05-20T10:15:34.425Z,92.53
2019-05-20T10:18:03.190Z,91.85
2019-05-20T10:20:32.029Z,91.89
2019-05-20T10:23:00.885Z,91.01
2019-05-20T10:25:29.645Z,90.20
2019-05-20T10:27:58.385Z,87.68
2019-05-20T10:30:27.147Z,85.60
2019-05-20T10:32:55.884Z,84.48
2019-05-20T10:35:24.754Z,83.91
2019-05-20T10:37:53.508Z,83.54
2019-05-20T10:40:22.350Z,81.59
2019-05-20T10:42:51.116Z,81.59
2019-05-20T10:45:19.885Z,79.53
2019-05-20T10:47:48.713Z,78.73
2019-05-20T10:50:17.518Z,77.53
2019-05-20T10:52:46.347Z,77.23
2019-05-20T10:55:15.287Z,76.38
2019-05-20T10:57:44.099Z,73.05
2019-05-20T11:00:13.102Z,72.36
2019-05-20T11:02:41.931Z,73.56
2019-05-20T11:05:10.777Z,74.06
2019-05-20T11:07:39.658Z,73.18
2019-05-20T11:10:10.391Z,71.40
2019-05-20T11:12:39.149Z,70.93
2019-05-20T11:15:11.338Z,69.74
2019-05-20T11:17:40.147Z,67.76
2019-05-20T11:20:11.376Z,68.54
2019-05-20T11:22:40.190Z,67.15
2019-05-20T11:25:09.250Z,67.62
2019-05-20T11:27:37.991Z,68.77
2019-05-20T11:30:10.627Z,64.83
2019-05-20T11:32:39.327Z,64.36
2019-05-20T11:35:09.535Z,64.27
2019-05-20T11:37:38.445Z,63.78
2019-05-20T11:40:09.329Z,65.63
2019-05-20T11:42:38.453Z,64.85
2019-05-20T11:45:09.972Z,66.78
2019-05-20T11:47:38.751Z,65.82
2019-05-20T11:50:09.888Z,65.48
2019-05-20T11:52:38.846Z,66.04
2019-05-20T11:55:08.911Z,65.48
2019-05-20T11:57:37.788Z,64.42
2019-05-20T12:00:09.022Z,65.75
2019-05-20T12:02:38.667Z,61.42
2019-05-20T12:05:09.045Z,62.49
2019-05-20T12:07:37.717Z,65.11
2019-05-20T12:10:11.254Z,64.12
2019-05-20T12:12:39.997Z,64.60
2019-05-20T12:15:10.026Z,65.72
2019-05-20T12:17:38.786Z,63.36
2019-05-20T12:20:11.923Z,62.74
2019-05-20T12:22:40.614Z,62.68
2019-05-20T12:25:10.152Z,63.24
2019-05-20T12:27:38.919Z,62.62
2019-05-20T12:30:08.213Z,62.42
2019-05-20T12:32:37.081Z,63.67
2019-05-20T12:35:08.209Z,62.01
2019-05-20T12:37:38.736Z,61.56
2019-05-20T12:40:09.138Z,60.15
2019-05-20T12:42:38.474Z,57.07
2019-05-20T12:45:10.243Z,57.07
2019-05-20T12:47:39.108Z,56.57
2019-05-20T12:50:10.276Z,56.22
2019-05-20T12:52:39.034Z,56.03
2019-05-20T12:55:10.543Z,53.07
2019-05-20T12:57:39.309Z,56.14
2019-05-20T13:00:11.373Z,60.25
2019-05-20T13:02:43.964Z,57.50
2019-05-20T13:05:13.438Z,57.96
2019-05-20T13:07:42.248Z,56.62
2019-05-20T13:10:28.237Z,58.02
2019-05-20T13:12:43.045Z,58.75
2019-05-20T13:15:12.494Z,59.19
2019-05-20T13:17:44.626Z,58.69
2019-05-20T13:20:11.948Z,59.25
2019-05-20T13:22:40.686Z,59.27
2019-05-20T13:25:09.446Z,57.55
2019-05-20T13:27:38.202Z,57.53
2019-05-20T13:30:08.844Z,57.53
2019-05-20T13:32:37.599Z,59.54
2019-05-20T13:35:07.653Z,57.86
2019-05-20T13:37:36.411Z,58.19
2019-05-20T13:40:07.580Z,58.30
2019-05-20T13:42:37.052Z,59.33
2019-05-20T13:45:08.857Z,59.67
2019-05-20T13:47:37.625Z,61.42
2019-05-20T13:50:08.652Z,59.49
2019-05-20T13:52:37.462Z,59.58
2019-05-20T13:55:06.462Z,58.36
2019-05-20T13:57:35.312Z,57.26
2019-05-20T14:00:05.659Z,58.03
2019-05-20T14:02:34.416Z,58.72
2019-05-20T14:05:03.219Z,57.34
2019-05-20T14:07:32.133Z,58.00
2019-05-20T14:10:00.895Z,57.68
2019-05-20T14:12:29.662Z,57.16
2019-05-20T14:14:58.415Z,59.36
2019-05-20T14:17:27.673Z,60.78
2019-05-20T14:19:56.534Z,60.78
2019-05-20T14:22:25.344Z,61.53
2019-05-20T14:24:54.112Z,60.72
2019-05-20T14:27:22.857Z,61.51
2019-05-20T14:29:51.654Z,63.62
2019-05-20T14:32:20.431Z,62.05
2019-05-20T14:34:49.220Z,60.76
2019-05-20T14:37:18.024Z,60.80
2019-05-20T14:39:46.956Z,61.10
2019-05-20T14:42:16.701Z,60.26
2019-05-20T14:44:45.488Z,59.59
2019-05-20T14:47:14.418Z,61.15
2019-05-20T14:49:45.969Z,61.09
2019-05-20T14:52:16.230Z,59.77
2019-05-20T14:54:46.860Z,58.60
2019-05-20T14:57:15.691Z,57.89
2019-05-20T14:59:47.430Z,58.30
2019-05-20T15:02:16.182Z,58.24
2019-05-20T15:04:44.977Z,58.74
2019-05-20T15:07:28.592Z,60.12
2019-05-20T15:09:44.357Z,58.96
2019-05-20T15:12:13.184Z,58.84
2019-05-20T15:14:42.637Z,56.92
2019-05-20T15:17:20.891Z,57.84
2019-05-20T15:19:49.799Z,58.24
2019-05-20T15:22:18.634Z,58.46
2019-05-20T15:24:47.411Z,60.36
2019-05-20T15:27:16.175Z,60.36
2019-05-20T15:29:44.910Z,62.41
2019-05-20T15:32:13.699Z,60.21
2019-05-20T15:34:42.466Z,60.53
2019-05-20T15:37:11.223Z,62.26
2019-05-20T15:39:39.979Z,62.48
2019-05-20T15:42:08.783Z,64.59
2019-05-20T15:44:37.549Z,63.79
2019-05-20T15:47:06.278Z,64.39
2019-05-20T15:49:35.051Z,65.03
2019-05-20T15:52:03.810Z,65.36
2019-05-20T15:54:32.599Z,63.90
2019-05-20T15:57:01.372Z,64.72
2019-05-20T15:59:44.831Z,65.27
2019-05-20T16:02:00.585Z,65.27
2019-05-20T16:04:29.255Z,66.04
2019-05-20T16:07:00.289Z,65.88
2019-05-20T16:09:28.469Z,64.98
2019-05-20T16:11:57.206Z,64.75
2019-05-20T16:14:25.902Z,64.55
2019-05-20T16:16:54.687Z,66.71
2019-05-20T16:19:23.450Z,66.55
2019-05-20T16:21:52.190Z,65.84
2019-05-20T16:24:20.952Z,65.63
2019-05-20T16:26:49.743Z,66.90
2019-05-20T16:29:18.560Z,67.06
2019-05-20T16:31:47.324Z,67.80
2019-05-20T16:34:16.213Z,68.14
2019-05-20T16:36:44.997Z,68.75
2019-05-20T16:39:13.749Z,68.89
2019-05-20T16:41:42.608Z,70.42
2019-05-20T16:44:11.354Z,69.85
2019-05-20T16:46:40.246Z,69.08
2019-05-20T16:49:09.098Z,69.32
2019-05-20T16:51:37.932Z,69.14
2019-05-20T16:54:06.715Z,68.70
2019-05-20T16:56:35.458Z,69.90
2019-05-20T16:59:04.236Z,68.69
2019-05-20T17:01:45.554Z,69.18
2019-05-20T17:04:03.501Z,69.71
2019-05-20T17:06:32.237Z,69.56
2019-05-20T17:09:01.054Z,69.61
2019-05-20T17:11:29.788Z,70.07
2019-05-20T17:13:58.554Z,69.88
2019-05-20T17:16:27.331Z,70.71
2019-05-20T17:18:56.090Z,72.51
2019-05-20T17:21:24.857Z,71.35
2019-05-20T17:23:53.695Z,72.76
2019-05-20T17:26:22.481Z,72.34
2019-05-20T17:28:51.293Z,74.22
2019-05-20T17:31:20.137Z,74.31
2019-05-20T17:33:48.939Z,74.58
2019-05-20T17:36:17.698Z,75.12
2019-05-20T17:38:46.530Z,75.53
2019-05-20T17:41:15.431Z,75.27
2019-05-20T17:43:44.199Z,76.52
2019-05-20T17:46:12.931Z,76.42
2019-05-20T17:48:41.804Z,76.37
2019-05-20T17:51:10.661Z,75.34
2019-05-20T17:53:39.448Z,74.64
2019-05-20T17:56:10.919Z,75.16
2019-05-20T17:58:39.792Z,75.54
2019-05-20T18:01:15.535Z,76.80
2019-05-20T18:03:39.086Z,77.18
2019-05-20T18:06:07.879Z,76.81
2019-05-20T18:08:38.210Z,78.76
2019-05-20T18:11:07.102Z,78.22
2019-05-20T18:13:35.915Z,77.32
2019-05-20T18:16:05.223Z,77.69
2019-05-20T18:18:34.022Z,77.96
2019-05-20T18:21:02.765Z,78.28
2019-05-20T18:23:31.528Z,78.33
2019-05-20T18:26:03.474Z,78.46
2019-05-20T18:28:30.925Z,79.00
2019-05-20T18:30:59.666Z,78.57
2019-05-20T18:33:28.397Z,80.78
2019-05-20T18:35:57.092Z,80.16
2019-05-20T18:38:25.862Z,80.02
2019-05-20T18:40:54.815Z,79.99
2019-05-20T18:43:23.577Z,80.21
2019-05-20T18:45:52.388Z,81.17
2019-05-20T18:48:21.275Z,81.35
2019-05-20T18:50:50.023Z,80.88
2019-05-20T18:53:18.761Z,81.05
2019-05-20T18:55:47.547Z,81.41
2019-05-20T18:58:16.685Z,82.35
2019-05-20T19:00:48.121Z,81.82
2019-05-20T19:03:17.040Z,82.54
2019-05-20T19:05:46.027Z,81.85
2019-05-20T19:08:14.908Z,83.04
2019-05-20T19:10:43.733Z,83.21
2019-05-20T19:13:12.601Z,82.81
2019-05-20T19:15:41.501Z,82.76
2019-05-20T19:18:10.258Z,83.91
2019-05-20T19:20:48.529Z,83.95
2019-05-20T19:23:17.710Z,84.10
2019-05-20T19:25:46.505Z,83.89
2019-05-20T19:28:15.254Z,84.15
2019-05-20T19:30:44.050Z,84.41
2019-05-20T19:33:12.884Z,84.05
2019-05-20T19:35:41.689Z,84.42
2019-05-20T19:38:10.431Z,84.15
2019-05-20T19:40:39.209Z,83.90
2019-05-20T19:43:08.021Z,83.87
2019-05-20T19:45:36.783Z,83.99
2019-05-20T19:48:06.543Z,84.24
2019-05-20T19:50:35.290Z,84.11
2019-05-20T19:53:04.069Z,84.76
2019-05-20T19:55:33.162Z,85.01
2019-05-20T19:58:01.901Z,85.77
2019-05-20T20:00:30.642Z,85.74
2019-05-20T20:02:59.433Z,86.21
2019-05-20T20:05:31.531Z,85.92
2019-05-20T20:08:00.317Z,86.68
2019-05-20T20:10:29.073Z,86.26
2019-05-20T20:12:57.984Z,86.55
2019-05-20T20:15:26.737Z,86.83
2019-05-20T20:17:55.500Z,86.85
2019-05-20T20:20:24.286Z,86.68
2019-05-20T20:22:53.044Z,87.28
2019-05-20T20:25:21.766Z,87.52
2019-05-20T20:27:50.547Z,87.68
2019-05-20T20:30:19.383Z,88.76
2019-05-20T20:32:49.249Z,87.97
2019-05-20T20:35:19.328Z,87.64
2019-05-20T20:37:48.103Z,87.71
2019-05-20T20:40:18.861Z,88.60
2019-05-20T20:42:47.974Z,88.04
2019-05-20T20:45:17.111Z,88.08
2019-05-20T20:47:46.006Z,88.10
2019-05-20T20:50:16.454Z,88.54
2019-05-20T20:52:46.321Z,89.15
2019-05-20T20:55:16.256Z,88.51
2019-05-20T20:57:45.171Z,88.67
2019-05-20T21:00:14.402Z,88.54
2019-05-20T21:02:52.602Z,88.79
2019-05-20T21:05:13.997Z,88.94
2019-05-20T21:07:42.883Z,88.64
2019-05-20T21:10:12.240Z,88.78
2019-05-20T21:12:41.115Z,88.37
2019-05-20T21:15:10.522Z,88.49
2019-05-20T21:17:39.173Z,88.33
2019-05-20T21:20:09.143Z,88.21
2019-05-20T21:22:38.617Z,88.35
2019-05-20T21:25:08.467Z,88.52
2019-05-20T21:27:37.278Z,88.36
2019-05-20T21:30:10.415Z,88.54
2019-05-20T21:32:39.205Z,88.29
2019-05-20T21:35:07.977Z,88.72
2019-05-20T21:37:36.845Z,88.74
2019-05-20T21:40:06.282Z,88.77
2019-05-20T21:42:35.032Z,89.21
2019-05-20T21:45:05.439Z,89.30
2019-05-20T21:47:34.319Z,90.07
2019-05-20T21:50:03.064Z,90.92
2019-05-20T21:52:31.812Z,91.00
2019-05-20T21:55:00.694Z,90.99
2019-05-20T21:57:29.428Z,92.38
2019-05-20T21:59:58.155Z,92.04
2019-05-20T22:02:27.083Z,90.89
2019-05-20T22:04:55.951Z,91.13
2019-05-20T22:07:24.765Z,91.31
2019-05-20T22:09:53.521Z,91.93
2019-05-20T22:12:22.272Z,92.10
2019-05-20T22:14:52.815Z,92.22
2019-05-20T22:17:21.607Z,93.51
2019-05-20T22:19:50.390Z,93.88
2019-05-20T22:22:37.022Z,94.70
2019-05-20T22:25:06.019Z,95.15
2019-05-20T22:27:34.761Z,96.20
2019-05-20T22:30:04.944Z,96.06
2019-05-20T22:32:33.696Z,96.11
2019-05-20T22:35:02.431Z,96.65
2019-05-20T22:37:31.189Z,96.48
2019-05-20T22:39:59.987Z,96.66
2019-05-20T22:42:28.809Z,96.39
2019-05-20T22:44:57.645Z,96.22
2019-05-20T22:47:27.435Z,96.99
2019-05-20T22:49:56.870Z,96.96
2019-05-20T22:52:34.997Z,97.25
2019-05-20T22:55:07.409Z,97.89
2019-05-20T22:57:37.280Z,97.83
2019-05-20T23:00:07.165Z,98.15
2019-05-20T23:02:36.629Z,98.11
2019-05-20T23:05:08.940Z,98.18
2019-05-20T23:07:38.447Z,98.25
2019-05-20T23:10:10.820Z,98.54
2019-05-20T23:12:40.599Z,98.61
2019-05-20T23:15:10.447Z,98.49
2019-05-20T23:17:41.312Z,98.46
2019-05-20T23:20:11.104Z,98.53
2019-05-20T23:22:40.590Z,98.70
2019-05-20T23:25:10.197Z,98.61
2019-05-20T23:27:39.881Z,98.67
2019-05-20T23:30:09.786Z,98.54
2019-05-20T23:32:39.278Z,98.21
2019-05-20T23:35:09.115Z,98.12
2019-05-20T23:37:38.617Z,98.14
2019-05-20T23:40:08.420Z,97.90
2019-05-20T23:42:37.908Z,97.87
2019-05-20T23:45:10.227Z,97.83
2019-05-20T23:47:39.014Z,97.82
2019-05-20T23:50:09.060Z,97.86
2019-05-20T23:52:37.793Z,98.11
2019-05-20T23:55:09.123Z,98.18
2019-05-20T23:57:37.930Z,98.07
